sensor_id;sensor_type;location;lat;lon;timestamp;P1;durP1;ratioP1;P2;durP2;ratioP2
23476;SDS011;11911;50.768;13.150;2022-10-30T05:00:17;4.30;;;1.87;;
23476;SDS011;11911;50.768;13.150;2022-10-30T05:02:42;3.73;;;1.83;;
23476;SDS011;11911;50.768;13.150;2022-10-30T05:05:09;6.73;;;2.10;;
23476;SDS011;11911;50.768;13.150;2022-10-30T05:07:34;7.43;;;2.23;;
23476;SDS011;11911;50.768;13.150;2022-10-30T05:10:00;5.40;;;1.83;;
23476;SDS011;11911;50.768;13.150;2022-10-30T05:12:25;5.90;;;1.90;;
23476;SDS011;11911;50.768;13.150;2022-10-30T05:14:50;5.77;;;2.27;;
23476;SDS011;11911;50.768;13.150;2022-10-30T05:17:16;7.17;;;2.20;;
23476;SDS011;11911;50.768;13.150;2022-10-30T05:19:42;8.73;;;2.37;;
23476;SDS011;11911;50.768;13.150;2022-10-30T06:32:06;9.13;;;2.83;;
23476;SDS011;11911;50.768;13.150;2022-10-30T06:34:32;6.13;;;2.40;;
23476;SDS011;11911;50.768;13.150;2022-10-30T06:36:58;7.80;;;2.07;;
23476;SDS011;11911;50.768;13.150;2022-10-30T06:39:23;7.10;;;1.70;;
23476;SDS011;11911;50.768;13.150;2022-10-30T06:41:51;5.40;;;2.67;;
23476;SDS011;11911;50.768;13.150;2022-10-30T06:44:17;11.23;;;2.70;;
23476;SDS011;11911;50.768;13.150;2022-10-30T06:46:42;8.40;;;2.33;;
23476;SDS011;11911;50.768;13.150;2022-10-30T06:49:08;8.93;;;2.20;;
23476;SDS011;11911;50.768;13.150;2022-10-30T06:51:34;8.83;;;2.23;;
23476;SDS011;11911;50.768;13.150;2022-10-30T06:54:00;4.87;;;2.20;;
23476;SDS011;11911;50.768;13.150;2022-10-30T06:56:25;5.93;;;2.40;;
23476;SDS011;11911;50.768;13.150;2022-10-30T06:58:51;6.80;;;2.30;;
23476;SDS011;11911;50.768;13.150;2022-10-30T07:01:16;5.90;;;2.23;;
23476;SDS011;11911;50.768;13.150;2022-10-30T07:03:42;5.50;;;2.10;;
23476;SDS011;11911;50.768;13.150;2022-10-30T07:06:07;8.63;;;2.20;;
23476;SDS011;11911;50.768;13.150;2022-10-30T07:08:33;7.50;;;2.27;;
23476;SDS011;11911;50.768;13.150;2022-10-30T07:10:58;8.93;;;2.40;;
23476;SDS011;11911;50.768;13.150;2022-10-30T07:13:24;5.83;;;2.53;;
23476;SDS011;11911;50.768;13.150;2022-10-30T07:15:49;7.30;;;2.80;;
23476;SDS011;11911;50.768;13.150;2022-10-30T07:18:15;7.07;;;2.83;;
23476;SDS011;11911;50.768;13.150;2022-10-30T07:20:41;5.63;;;2.33;;
23476;SDS011;11911;50.768;13.150;2022-10-30T07:23:06;9.03;;;3.03;;
23476;SDS011;11911;50.768;13.150;2022-10-30T07:25:32;9.13;;;3.40;;
23476;SDS011;11911;50.768;13.150;2022-10-30T07:27:58;10.40;;;4.43;;
23476;SDS011;11911;50.768;13.150;2022-10-30T07:30:25;5.70;;;2.97;;
23476;SDS011;11911;50.768;13.150;2022-10-30T07:33:01;7.97;;;3.03;;
23476;SDS011;11911;50.768;13.150;2022-10-30T07:35:29;11.37;;;2.50;;
23476;SDS011;11911;50.768;13.150;2022-10-30T07:38:06;10.70;;;3.07;;
23476;SDS011;11911;50.768;13.150;2022-10-30T07:40:35;15.60;;;3.97;;
23476;SDS011;11911;50.768;13.150;2022-10-30T07:43:01;9.33;;;4.20;;
23476;SDS011;11911;50.768;13.150;2022-10-30T07:45:27;13.57;;;4.47;;
23476;SDS011;11911;50.768;13.150;2022-10-30T07:47:53;7.83;;;3.17;;
23476;SDS011;11911;50.768;13.150;2022-10-30T07:50:19;13.60;;;10.00;;
23476;SDS011;11911;50.768;13.150;2022-10-30T07:52:45;8.93;;;4.63;;
23476;SDS011;11911;50.768;13.150;2022-10-30T07:55:11;7.60;;;4.30;;
23476;SDS011;11911;50.768;13.150;2022-10-30T07:57:40;11.07;;;4.53;;
23476;SDS011;11911;50.768;13.150;2022-10-30T08:00:10;9.50;;;3.57;;
23476;SDS011;11911;50.768;13.150;2022-10-30T08:02:37;12.50;;;5.10;;
23476;SDS011;11911;50.768;13.150;2022-10-30T08:05:03;8.33;;;3.30;;
23476;SDS011;11911;50.768;13.150;2022-10-30T08:07:29;5.30;;;3.23;;
23476;SDS011;11911;50.768;13.150;2022-10-30T08:09:56;6.67;;;2.50;;
23476;SDS011;11911;50.768;13.150;2022-10-30T08:12:22;14.60;;;3.20;;
23476;SDS011;11911;50.768;13.150;2022-10-30T08:14:47;4.53;;;2.20;;
23476;SDS011;11911;50.768;13.150;2022-10-30T08:17:13;17.90;;;3.50;;
23476;SDS011;11911;50.768;13.150;2022-10-30T08:19:39;6.60;;;2.60;;
23476;SDS011;11911;50.768;13.150;2022-10-30T08:22:04;9.90;;;3.73;;
23476;SDS011;11911;50.768;13.150;2022-10-30T08:24:30;13.57;;;3.23;;
23476;SDS011;11911;50.768;13.150;2022-10-30T08:26:56;7.40;;;3.50;;
23476;SDS011;11911;50.768;13.150;2022-10-30T08:29:21;11.40;;;3.57;;
23476;SDS011;11911;50.768;13.150;2022-10-30T08:31:47;6.53;;;2.80;;
23476;SDS011;11911;50.768;13.150;2022-10-30T08:34:13;6.60;;;2.97;;
23476;SDS011;11911;50.768;13.150;2022-10-30T08:36:39;9.00;;;4.13;;
23476;SDS011;11911;50.768;13.150;2022-10-30T08:39:04;10.10;;;4.60;;
23476;SDS011;11911;50.768;13.150;2022-10-30T08:41:30;3.83;;;2.53;;
23476;SDS011;11911;50.768;13.150;2022-10-30T08:43:55;16.90;;;2.93;;
23476;SDS011;11911;50.768;13.150;2022-10-30T08:46:21;8.80;;;2.83;;
23476;SDS011;11911;50.768;13.150;2022-10-30T08:48:46;13.20;;;2.60;;
23476;SDS011;11911;50.768;13.150;2022-10-30T08:51:12;12.70;;;2.57;;
23476;SDS011;11911;50.768;13.150;2022-10-30T08:53:37;6.97;;;3.10;;
23476;SDS011;11911;50.768;13.150;2022-10-30T08:56:03;6.33;;;2.20;;
23476;SDS011;11911;50.768;13.150;2022-10-30T08:58:29;5.07;;;2.37;;
23476;SDS011;11911;50.768;13.150;2022-10-30T09:00:55;11.90;;;2.17;;
23476;SDS011;11911;50.768;13.150;2022-10-30T09:03:20;9.13;;;2.00;;
23476;SDS011;11911;50.768;13.150;2022-10-30T09:05:46;6.20;;;2.50;;
23476;SDS011;11911;50.768;13.150;2022-10-30T09:08:11;11.00;;;2.93;;
23476;SDS011;11911;50.768;13.150;2022-10-30T09:10:37;9.20;;;2.30;;
23476;SDS011;11911;50.768;13.150;2022-10-30T09:13:02;10.50;;;2.87;;
23476;SDS011;11911;50.768;13.150;2022-10-30T09:15:28;5.93;;;2.73;;
23476;SDS011;11911;50.768;13.150;2022-10-30T09:17:58;7.93;;;2.17;;
23476;SDS011;11911;50.768;13.150;2022-10-30T09:20:25;4.77;;;2.67;;
23476;SDS011;11911;50.768;13.150;2022-10-30T09:22:51;7.37;;;2.70;;
23476;SDS011;11911;50.768;13.150;2022-10-30T09:25:17;9.50;;;2.60;;
23476;SDS011;11911;50.768;13.150;2022-10-30T09:27:43;8.10;;;2.17;;
23476;SDS011;11911;50.768;13.150;2022-10-30T09:30:08;10.07;;;2.60;;
23476;SDS011;11911;50.768;13.150;2022-10-30T09:32:35;9.60;;;2.80;;
23476;SDS011;11911;50.768;13.150;2022-10-30T09:35:00;7.00;;;2.87;;
23476;SDS011;11911;50.768;13.150;2022-10-30T09:37:26;8.73;;;2.30;;
23476;SDS011;11911;50.768;13.150;2022-10-30T09:39:52;5.67;;;2.37;;
23476;SDS011;11911;50.768;13.150;2022-10-30T09:50:30;9.83;;;2.90;;
23476;SDS011;11911;50.768;13.150;2022-10-30T09:53:29;7.13;;;2.83;;
23476;SDS011;11911;50.768;13.150;2022-10-30T09:56:23;10.60;;;2.70;;
23476;SDS011;11911;50.768;13.150;2022-10-30T09:59:02;10.23;;;2.77;;
23476;SDS011;11911;50.768;13.150;2022-10-30T10:04:20;6.83;;;2.93;;
23476;SDS011;11911;50.768;13.150;2022-10-30T10:07:01;8.63;;;2.67;;
23476;SDS011;11911;50.768;13.150;2022-10-30T10:09:34;11.80;;;2.43;;
23476;SDS011;11911;50.768;13.150;2022-10-30T10:12:03;11.57;;;3.03;;
23476;SDS011;11911;50.768;13.150;2022-10-30T10:14:43;8.10;;;2.50;;
23476;SDS011;11911;50.768;13.150;2022-10-30T10:17:22;15.50;;;3.10;;
23476;SDS011;11911;50.768;13.150;2022-10-30T10:19:58;14.93;;;2.40;;
23476;SDS011;11911;50.768;13.150;2022-10-30T10:22:25;10.63;;;2.17;;
23476;SDS011;11911;50.768;13.150;2022-10-30T10:24:58;17.93;;;3.57;;
23476;SDS011;11911;50.768;13.150;2022-10-30T10:30:28;10.10;;;2.40;;
23476;SDS011;11911;50.768;13.150;2022-10-30T10:33:19;10.63;;;2.87;;
23476;SDS011;11911;50.768;13.150;2022-10-30T10:41:54;14.00;;;2.70;;
23476;SDS011;11911;50.768;13.150;2022-10-30T10:47:17;5.80;;;2.20;;
23476;SDS011;11911;50.768;13.150;2022-10-30T10:50:09;17.27;;;3.13;;
23476;SDS011;11911;50.768;13.150;2022-10-30T10:52:39;15.03;;;2.90;;
23476;SDS011;11911;50.768;13.150;2022-10-30T10:55:15;9.83;;;2.43;;
23476;SDS011;11911;50.768;13.150;2022-10-30T10:57:47;10.27;;;2.57;;
23476;SDS011;11911;50.768;13.150;2022-10-30T11:00:16;5.00;;;1.87;;
23476;SDS011;11911;50.768;13.150;2022-10-30T11:05:45;9.90;;;2.93;;
23476;SDS011;11911;50.768;13.150;2022-10-30T11:08:27;8.70;;;3.23;;
23476;SDS011;11911;50.768;13.150;2022-10-30T11:10:58;16.43;;;3.37;;
23476;SDS011;11911;50.768;13.150;2022-10-30T11:14:01;12.00;;;2.67;;
23476;SDS011;11911;50.768;13.150;2022-10-30T11:16:37;10.70;;;2.40;;
23476;SDS011;11911;50.768;13.150;2022-10-30T11:19:27;15.83;;;2.60;;
23476;SDS011;11911;50.768;13.150;2022-10-30T11:21:57;9.17;;;2.50;;
23476;SDS011;11911;50.768;13.150;2022-10-30T11:24:31;6.40;;;2.33;;
23476;SDS011;11911;50.768;13.150;2022-10-30T11:27:17;12.77;;;2.97;;
23476;SDS011;11911;50.768;13.150;2022-10-30T11:30:00;13.33;;;2.80;;
23476;SDS011;11911;50.768;13.150;2022-10-30T11:32:29;16.60;;;2.63;;
23476;SDS011;11911;50.768;13.150;2022-10-30T11:35:00;16.33;;;3.40;;
23476;SDS011;11911;50.768;13.150;2022-10-30T11:37:32;10.97;;;2.90;;
23476;SDS011;11911;50.768;13.150;2022-10-30T11:42:44;8.07;;;2.80;;
23476;SDS011;11911;50.768;13.150;2022-10-30T11:45:22;13.60;;;3.50;;
23476;SDS011;11911;50.768;13.150;2022-10-30T11:47:55;14.90;;;3.00;;
23476;SDS011;11911;50.768;13.150;2022-10-30T11:50:23;15.23;;;3.00;;
23476;SDS011;11911;50.768;13.150;2022-10-30T11:53:00;9.00;;;3.60;;
23476;SDS011;11911;50.768;13.150;2022-10-30T11:55:36;8.60;;;3.27;;
23476;SDS011;11911;50.768;13.150;2022-10-30T11:58:05;10.00;;;3.53;;
23476;SDS011;11911;50.768;13.150;2022-10-30T12:00:33;7.10;;;2.87;;
23476;SDS011;11911;50.768;13.150;2022-10-30T12:03:01;11.57;;;3.80;;
23476;SDS011;11911;50.768;13.150;2022-10-30T12:07:54;8.47;;;3.23;;
23476;SDS011;11911;50.768;13.150;2022-10-30T12:13:16;12.30;;;2.90;;
23476;SDS011;11911;50.768;13.150;2022-10-30T12:15:44;7.53;;;2.90;;
23476;SDS011;11911;50.768;13.150;2022-10-30T12:18:24;9.00;;;3.37;;
23476;SDS011;11911;50.768;13.150;2022-10-30T12:20:52;16.00;;;3.20;;
23476;SDS011;11911;50.768;13.150;2022-10-30T12:23:20;8.23;;;2.93;;
23476;SDS011;11911;50.768;13.150;2022-10-30T12:25:50;11.50;;;3.30;;
23476;SDS011;11911;50.768;13.150;2022-10-30T12:28:25;7.67;;;2.60;;
23476;SDS011;11911;50.768;13.150;2022-10-30T12:31:02;22.43;;;3.90;;
23476;SDS011;11911;50.768;13.150;2022-10-30T12:33:45;12.27;;;3.00;;
23476;SDS011;11911;50.768;13.150;2022-10-30T12:38:49;9.90;;;3.30;;
23476;SDS011;11911;50.768;13.150;2022-10-30T12:46:37;19.53;;;3.90;;
23476;SDS011;11911;50.768;13.150;2022-10-30T12:52:27;11.43;;;3.10;;
23476;SDS011;11911;50.768;13.150;2022-10-30T12:55:18;8.90;;;2.93;;
23476;SDS011;11911;50.768;13.150;2022-10-30T12:57:54;21.63;;;3.10;;
23476;SDS011;11911;50.768;13.150;2022-10-30T13:00:27;11.07;;;3.33;;
23476;SDS011;11911;50.768;13.150;2022-10-30T13:03:03;10.03;;;2.93;;
23476;SDS011;11911;50.768;13.150;2022-10-30T13:05:53;11.03;;;3.70;;
23476;SDS011;11911;50.768;13.150;2022-10-30T13:11:08;16.17;;;3.43;;
23476;SDS011;11911;50.768;13.150;2022-10-30T13:13:42;15.23;;;3.70;;
23476;SDS011;11911;50.768;13.150;2022-10-30T13:16:17;11.00;;;2.50;;
23476;SDS011;11911;50.768;13.150;2022-10-30T13:18:47;19.60;;;3.00;;
23476;SDS011;11911;50.768;13.150;2022-10-30T13:21:17;9.17;;;3.13;;
23476;SDS011;11911;50.768;13.150;2022-10-30T13:23:51;14.50;;;3.50;;
23476;SDS011;11911;50.768;13.150;2022-10-30T13:26:27;8.40;;;3.00;;
23476;SDS011;11911;50.768;13.150;2022-10-30T13:29:12;8.83;;;2.60;;
23476;SDS011;11911;50.768;13.150;2022-10-30T13:34:39;8.50;;;2.20;;
23476;SDS011;11911;50.768;13.150;2022-10-30T13:37:24;14.77;;;3.40;;
23476;SDS011;11911;50.768;13.150;2022-10-30T13:40:04;10.17;;;2.70;;
23476;SDS011;11911;50.768;13.150;2022-10-30T13:42:41;12.83;;;3.40;;
23476;SDS011;11911;50.768;13.150;2022-10-30T13:46:00;8.07;;;3.00;;
23476;SDS011;11911;50.768;13.150;2022-10-30T13:53:56;11.70;;;3.17;;
23476;SDS011;11911;50.768;13.150;2022-10-30T13:56:43;13.13;;;3.10;;
23476;SDS011;11911;50.768;13.150;2022-10-30T14:04:27;13.60;;;4.03;;
23476;SDS011;11911;50.768;13.150;2022-10-30T14:20:36;21.53;;;3.93;;
23476;SDS011;11911;50.768;13.150;2022-10-30T14:25:44;13.80;;;2.87;;
23476;SDS011;11911;50.768;13.150;2022-10-30T14:28:29;11.73;;;3.13;;
23476;SDS011;11911;50.768;13.150;2022-10-30T14:33:33;15.20;;;3.10;;
23476;SDS011;11911;50.768;13.150;2022-10-30T14:38:41;6.23;;;2.53;;
23476;SDS011;11911;50.768;13.150;2022-10-30T14:50:27;7.23;;;2.63;;
23476;SDS011;11911;50.768;13.150;2022-10-30T14:55:51;10.63;;;2.90;;
23476;SDS011;11911;50.768;13.150;2022-10-30T14:58:36;8.80;;;2.43;;
23476;SDS011;11911;50.768;13.150;2022-10-30T15:11:36;9.30;;;4.40;;
23476;SDS011;11911;50.768;13.150;2022-10-30T15:16:51;12.83;;;4.37;;
23476;SDS011;11911;50.768;13.150;2022-10-30T15:19:17;19.97;;;3.10;;
23476;SDS011;11911;50.768;13.150;2022-10-30T15:21:47;11.63;;;2.90;;
23476;SDS011;11911;50.768;13.150;2022-10-30T15:24:17;8.40;;;2.53;;
23476;SDS011;11911;50.768;13.150;2022-10-30T15:26:46;14.13;;;2.60;;
23476;SDS011;11911;50.768;13.150;2022-10-30T15:29:18;15.73;;;3.07;;
23476;SDS011;11911;50.768;13.150;2022-10-30T15:31:55;13.40;;;3.47;;
23476;SDS011;11911;50.768;13.150;2022-10-30T15:34:26;10.10;;;2.77;;
23476;SDS011;11911;50.768;13.150;2022-10-30T15:36:53;7.60;;;2.90;;
23476;SDS011;11911;50.768;13.150;2022-10-30T15:39:19;8.17;;;2.30;;
23476;SDS011;11911;50.768;13.150;2022-10-30T15:41:52;16.97;;;2.83;;
23476;SDS011;11911;50.768;13.150;2022-10-30T15:44:21;10.00;;;2.60;;
23476;SDS011;11911;50.768;13.150;2022-10-30T15:46:55;11.00;;;3.27;;
23476;SDS011;11911;50.768;13.150;2022-10-30T15:49:34;7.77;;;2.37;;
23476;SDS011;11911;50.768;13.150;2022-10-30T15:52:02;9.57;;;4.07;;
23476;SDS011;11911;50.768;13.150;2022-10-30T15:54:36;18.07;;;3.57;;
23476;SDS011;11911;50.768;13.150;2022-10-30T15:57:05;9.47;;;4.43;;
23476;SDS011;11911;50.768;13.150;2022-10-30T15:59:36;7.07;;;3.73;;
23476;SDS011;11911;50.768;13.150;2022-10-30T16:02:01;10.53;;;2.50;;
23476;SDS011;11911;50.768;13.150;2022-10-30T16:04:42;11.07;;;2.33;;
23476;SDS011;11911;50.768;13.150;2022-10-30T16:07:41;12.93;;;2.70;;
23476;SDS011;11911;50.768;13.150;2022-10-30T16:10:08;11.40;;;2.70;;
23476;SDS011;11911;50.768;13.150;2022-10-30T16:12:34;15.03;;;2.60;;
23476;SDS011;11911;50.768;13.150;2022-10-30T16:15:05;11.40;;;3.10;;
23476;SDS011;11911;50.768;13.150;2022-10-30T16:17:39;16.37;;;3.60;;
23476;SDS011;11911;50.768;13.150;2022-10-30T16:20:05;14.10;;;4.27;;
23476;SDS011;11911;50.768;13.150;2022-10-30T16:22:35;12.67;;;5.70;;
23476;SDS011;11911;50.768;13.150;2022-10-30T16:25:06;34.60;;;23.00;;
23476;SDS011;11911;50.768;13.150;2022-10-30T16:27:33;27.63;;;16.43;;
23476;SDS011;11911;50.768;13.150;2022-10-30T16:29:58;53.27;;;29.33;;
23476;SDS011;11911;50.768;13.150;2022-10-30T16:32:28;32.50;;;22.07;;
23476;SDS011;11911;50.768;13.150;2022-10-30T16:34:56;30.33;;;10.40;;
23476;SDS011;11911;50.768;13.150;2022-10-30T16:37:24;20.10;;;6.53;;
23476;SDS011;11911;50.768;13.150;2022-10-30T16:39:56;14.70;;;3.70;;
23476;SDS011;11911;50.768;13.150;2022-10-30T16:42:26;13.27;;;5.30;;
23476;SDS011;11911;50.768;13.150;2022-10-30T16:45:18;14.07;;;7.30;;
23476;SDS011;11911;50.768;13.150;2022-10-30T16:48:27;12.70;;;5.10;;
23476;SDS011;11911;50.768;13.150;2022-10-30T16:50:51;10.70;;;5.80;;
23476;SDS011;11911;50.768;13.150;2022-10-30T16:53:22;18.60;;;4.20;;
23476;SDS011;11911;50.768;13.150;2022-10-30T16:55:49;9.40;;;3.47;;
23476;SDS011;11911;50.768;13.150;2022-10-30T16:58:16;24.73;;;12.07;;
23476;SDS011;11911;50.768;13.150;2022-10-30T17:00:55;16.03;;;6.70;;
23476;SDS011;11911;50.768;13.150;2022-10-30T17:03:28;13.57;;;5.50;;
23476;SDS011;11911;50.768;13.150;2022-10-30T17:05:59;21.33;;;6.63;;
23476;SDS011;11911;50.768;13.150;2022-10-30T17:08:38;14.63;;;4.57;;
23476;SDS011;11911;50.768;13.150;2022-10-30T17:11:06;11.73;;;4.40;;
23476;SDS011;11911;50.768;13.150;2022-10-30T17:13:40;16.40;;;5.97;;
23476;SDS011;11911;50.768;13.150;2022-10-30T17:18:52;14.77;;;4.90;;
23476;SDS011;11911;50.768;13.150;2022-10-30T17:21:20;7.77;;;4.70;;
23476;SDS011;11911;50.768;13.150;2022-10-30T17:23:51;19.37;;;7.03;;
23476;SDS011;11911;50.768;13.150;2022-10-30T17:26:22;16.10;;;5.43;;
23476;SDS011;11911;50.768;13.150;2022-10-30T17:28:50;16.07;;;5.20;;
23476;SDS011;11911;50.768;13.150;2022-10-30T17:34:13;12.63;;;5.47;;
23476;SDS011;11911;50.768;13.150;2022-10-30T17:36:41;13.10;;;4.23;;
23476;SDS011;11911;50.768;13.150;2022-10-30T17:39:07;9.43;;;4.80;;
23476;SDS011;11911;50.768;13.150;2022-10-30T17:41:34;21.80;;;5.73;;
23476;SDS011;11911;50.768;13.150;2022-10-30T17:44:00;13.07;;;4.73;;
23476;SDS011;11911;50.768;13.150;2022-10-30T17:46:26;26.30;;;8.27;;
23476;SDS011;11911;50.768;13.150;2022-10-30T17:48:52;17.53;;;5.43;;
23476;SDS011;11911;50.768;13.150;2022-10-30T17:51:18;13.23;;;5.17;;
23476;SDS011;11911;50.768;13.150;2022-10-30T17:53:45;21.73;;;5.40;;
23476;SDS011;11911;50.768;13.150;2022-10-30T17:56:12;15.30;;;5.50;;
23476;SDS011;11911;50.768;13.150;2022-10-30T17:58:44;14.07;;;5.73;;
23476;SDS011;11911;50.768;13.150;2022-10-30T18:01:12;17.47;;;5.70;;
23476;SDS011;11911;50.768;13.150;2022-10-30T18:03:40;13.80;;;6.40;;
23476;SDS011;11911;50.768;13.150;2022-10-30T18:06:05;12.17;;;5.30;;
23476;SDS011;11911;50.768;13.150;2022-10-30T18:08:33;16.07;;;5.90;;
23476;SDS011;11911;50.768;13.150;2022-10-30T18:10:59;9.80;;;6.23;;
23476;SDS011;11911;50.768;13.150;2022-10-30T18:13:24;13.40;;;8.00;;
23476;SDS011;11911;50.768;13.150;2022-10-30T18:15:56;23.63;;;7.73;;
23476;SDS011;11911;50.768;13.150;2022-10-30T18:18:22;21.30;;;6.80;;
23476;SDS011;11911;50.768;13.150;2022-10-30T18:20:48;14.07;;;6.20;;
23476;SDS011;11911;50.768;13.150;2022-10-30T18:23:17;19.30;;;4.43;;
23476;SDS011;11911;50.768;13.150;2022-10-30T18:25:45;14.63;;;5.00;;
23476;SDS011;11911;50.768;13.150;2022-10-30T18:28:11;15.47;;;6.10;;
23476;SDS011;11911;50.768;13.150;2022-10-30T18:30:37;14.10;;;5.73;;
23476;SDS011;11911;50.768;13.150;2022-10-30T18:33:02;21.20;;;9.10;;
23476;SDS011;11911;50.768;13.150;2022-10-30T18:35:29;25.40;;;7.63;;
23476;SDS011;11911;50.768;13.150;2022-10-30T18:37:55;24.27;;;10.77;;
23476;SDS011;11911;50.768;13.150;2022-10-30T18:40:21;17.93;;;8.00;;
23476;SDS011;11911;50.768;13.150;2022-10-30T18:42:47;19.53;;;9.17;;
23476;SDS011;11911;50.768;13.150;2022-10-30T18:45:34;17.30;;;8.00;;
23476;SDS011;11911;50.768;13.150;2022-10-30T18:47:59;28.27;;;9.10;;
23476;SDS011;11911;50.768;13.150;2022-10-30T18:50:25;14.40;;;7.30;;
23476;SDS011;11911;50.768;13.150;2022-10-30T18:52:52;12.77;;;7.13;;
23476;SDS011;11911;50.768;13.150;2022-10-30T18:57:44;10.67;;;5.87;;
23476;SDS011;11911;50.768;13.150;2022-10-30T19:00:10;15.90;;;6.67;;
23476;SDS011;11911;50.768;13.150;2022-10-30T19:02:37;13.20;;;5.63;;
23476;SDS011;11911;50.768;13.150;2022-10-30T19:05:19;20.40;;;6.67;;
23476;SDS011;11911;50.768;13.150;2022-10-30T19:07:51;19.47;;;7.87;;
23476;SDS011;11911;50.768;13.150;2022-10-30T19:10:17;21.27;;;10.30;;
23476;SDS011;11911;50.768;13.150;2022-10-30T19:12:43;15.70;;;7.70;;
23476;SDS011;11911;50.768;13.150;2022-10-30T19:15:18;19.47;;;8.87;;
23476;SDS011;11911;50.768;13.150;2022-10-30T19:17:48;20.20;;;7.57;;
23476;SDS011;11911;50.768;13.150;2022-10-30T19:20:13;15.87;;;6.13;;
23476;SDS011;11911;50.768;13.150;2022-10-30T19:22:39;14.50;;;6.33;;
23476;SDS011;11911;50.768;13.150;2022-10-30T19:25:15;24.83;;;7.07;;
23476;SDS011;11911;50.768;13.150;2022-10-30T19:27:47;14.83;;;6.20;;
23476;SDS011;11911;50.768;13.150;2022-10-30T19:30:13;15.20;;;6.67;;
23476;SDS011;11911;50.768;13.150;2022-10-30T19:32:39;11.40;;;5.27;;
23476;SDS011;11911;50.768;13.150;2022-10-30T19:35:05;18.83;;;7.00;;
23476;SDS011;11911;50.768;13.150;2022-10-30T19:37:31;16.13;;;7.77;;
23476;SDS011;11911;50.768;13.150;2022-10-30T19:39:58;13.17;;;7.23;;
23476;SDS011;11911;50.768;13.150;2022-10-30T19:42:33;18.07;;;7.10;;
23476;SDS011;11911;50.768;13.150;2022-10-30T19:44:59;23.00;;;8.57;;
23476;SDS011;11911;50.768;13.150;2022-10-30T19:47:24;22.00;;;10.40;;
23476;SDS011;11911;50.768;13.150;2022-10-30T19:49:50;26.20;;;9.10;;
23476;SDS011;11911;50.768;13.150;2022-10-30T19:52:15;15.40;;;9.27;;
23476;SDS011;11911;50.768;13.150;2022-10-30T19:54:41;37.50;;;19.30;;
23476;SDS011;11911;50.768;13.150;2022-10-30T19:57:08;22.80;;;9.40;;
23476;SDS011;11911;50.768;13.150;2022-10-30T19:59:37;26.77;;;11.00;;
23476;SDS011;11911;50.768;13.150;2022-10-30T20:02:02;13.10;;;6.60;;
23476;SDS011;11911;50.768;13.150;2022-10-30T20:04:28;12.53;;;7.37;;
23476;SDS011;11911;50.768;13.150;2022-10-30T20:06:54;16.93;;;6.80;;
23476;SDS011;11911;50.768;13.150;2022-10-30T20:09:20;14.20;;;8.07;;
23476;SDS011;11911;50.768;13.150;2022-10-30T20:11:46;17.30;;;7.20;;
23476;SDS011;11911;50.768;13.150;2022-10-30T20:14:12;18.53;;;6.47;;
23476;SDS011;11911;50.768;13.150;2022-10-30T20:16:37;14.33;;;7.37;;
23476;SDS011;11911;50.768;13.150;2022-10-30T20:19:19;22.07;;;7.60;;
23476;SDS011;11911;50.768;13.150;2022-10-30T20:21:49;11.67;;;6.90;;
23476;SDS011;11911;50.768;13.150;2022-10-30T20:24:14;15.57;;;7.13;;
23476;SDS011;11911;50.768;13.150;2022-10-30T20:26:40;19.83;;;7.00;;
23476;SDS011;11911;50.768;13.150;2022-10-30T20:29:06;17.70;;;6.80;;
23476;SDS011;11911;50.768;13.150;2022-10-30T20:31:32;10.50;;;6.30;;
23476;SDS011;11911;50.768;13.150;2022-10-30T20:33:58;16.13;;;6.70;;
23476;SDS011;11911;50.768;13.150;2022-10-30T20:36:24;29.53;;;7.80;;
23476;SDS011;11911;50.768;13.150;2022-10-30T20:38:49;22.20;;;9.70;;
23476;SDS011;11911;50.768;13.150;2022-10-30T20:41:19;16.00;;;7.73;;
23476;SDS011;11911;50.768;13.150;2022-10-30T20:43:47;27.63;;;11.87;;
23476;SDS011;11911;50.768;13.150;2022-10-30T20:46:16;16.40;;;8.60;;
23476;SDS011;11911;50.768;13.150;2022-10-30T20:48:42;15.10;;;9.20;;
23476;SDS011;11911;50.768;13.150;2022-10-30T20:51:08;22.53;;;8.00;;
23476;SDS011;11911;50.768;13.150;2022-10-30T20:53:35;26.33;;;7.20;;
23476;SDS011;11911;50.768;13.150;2022-10-30T20:56:00;14.90;;;6.20;;
23476;SDS011;11911;50.768;13.150;2022-10-30T20:58:26;18.30;;;7.70;;
23476;SDS011;11911;50.768;13.150;2022-10-30T21:00:53;20.13;;;6.93;;
23476;SDS011;11911;50.768;13.150;2022-10-30T21:03:19;12.30;;;6.90;;
23476;SDS011;11911;50.768;13.150;2022-10-30T21:05:45;20.83;;;9.60;;
23476;SDS011;11911;50.768;13.150;2022-10-30T21:08:11;14.07;;;7.73;;
23476;SDS011;11911;50.768;13.150;2022-10-30T21:10:37;33.17;;;12.63;;
23476;SDS011;11911;50.768;13.150;2022-10-30T21:13:03;16.67;;;7.30;;
23476;SDS011;11911;50.768;13.150;2022-10-30T21:15:29;13.30;;;7.67;;
23476;SDS011;11911;50.768;13.150;2022-10-30T21:17:55;34.10;;;17.07;;
23476;SDS011;11911;50.768;13.150;2022-10-30T21:20:20;14.07;;;7.23;;
23476;SDS011;11911;50.768;13.150;2022-10-30T21:22:46;30.43;;;13.27;;
23476;SDS011;11911;50.768;13.150;2022-10-30T21:25:11;15.77;;;8.03;;
23476;SDS011;11911;50.768;13.150;2022-10-30T21:27:37;15.43;;;9.17;;
23476;SDS011;11911;50.768;13.150;2022-10-30T21:30:03;19.53;;;10.40;;
23476;SDS011;11911;50.768;13.150;2022-10-30T21:32:29;20.10;;;8.23;;
23476;SDS011;11911;50.768;13.150;2022-10-30T21:34:55;23.63;;;7.73;;
23476;SDS011;11911;50.768;13.150;2022-10-30T21:37:20;15.07;;;6.50;;
23476;SDS011;11911;50.768;13.150;2022-10-30T21:39:46;25.40;;;10.97;;
23476;SDS011;11911;50.768;13.150;2022-10-30T21:42:11;14.07;;;6.00;;
23476;SDS011;11911;50.768;13.150;2022-10-30T21:44:37;39.33;;;15.27;;
23476;SDS011;11911;50.768;13.150;2022-10-30T21:47:03;23.87;;;8.87;;
23476;SDS011;11911;50.768;13.150;2022-10-30T21:49:29;19.30;;;8.57;;
23476;SDS011;11911;50.768;13.150;2022-10-30T21:51:54;22.23;;;7.37;;
23476;SDS011;11911;50.768;13.150;2022-10-30T21:54:20;19.27;;;6.00;;
23476;SDS011;11911;50.768;13.150;2022-10-30T21:56:45;14.47;;;10.13;;
23476;SDS011;11911;50.768;13.150;2022-10-30T21:59:11;14.27;;;6.80;;
23476;SDS011;11911;50.768;13.150;2022-10-30T22:01:37;14.17;;;6.70;;
23476;SDS011;11911;50.768;13.150;2022-10-30T22:04:05;14.50;;;5.40;;
23476;SDS011;11911;50.768;13.150;2022-10-30T22:06:33;14.43;;;6.80;;
23476;SDS011;11911;50.768;13.150;2022-10-30T22:09:01;20.03;;;6.50;;
23476;SDS011;11911;50.768;13.150;2022-10-30T22:11:27;10.10;;;5.60;;
23476;SDS011;11911;50.768;13.150;2022-10-30T22:13:54;13.00;;;6.83;;
23476;SDS011;11911;50.768;13.150;2022-10-30T22:16:20;21.63;;;8.03;;
23476;SDS011;11911;50.768;13.150;2022-10-30T22:18:46;17.17;;;7.40;;
23476;SDS011;11911;50.768;13.150;2022-10-30T22:21:12;10.60;;;6.43;;
23476;SDS011;11911;50.768;13.150;2022-10-30T22:23:38;11.60;;;6.23;;
23476;SDS011;11911;50.768;13.150;2022-10-30T22:26:05;12.83;;;6.03;;
23476;SDS011;11911;50.768;13.150;2022-10-30T22:28:34;15.40;;;9.03;;
23476;SDS011;11911;50.768;13.150;2022-10-30T22:31:00;22.13;;;7.90;;
23476;SDS011;11911;50.768;13.150;2022-10-30T22:33:34;21.93;;;8.10;;
23476;SDS011;11911;50.768;13.150;2022-10-30T22:36:01;15.00;;;6.87;;
23476;SDS011;11911;50.768;13.150;2022-10-30T22:38:30;20.30;;;6.67;;
23476;SDS011;11911;50.768;13.150;2022-10-30T22:43:53;15.47;;;6.50;;
23476;SDS011;11911;50.768;13.150;2022-10-30T22:46:19;13.30;;;6.00;;
23476;SDS011;11911;50.768;13.150;2022-10-30T22:48:47;11.83;;;6.03;;